sensor_id;sensor_type;location;lat;lon;timestamp;temperature;humidity
19610;DHT22;9952;47.122;-1.638;2022-07-23T00:04:28;17.00;99.90
19610;DHT22;9952;47.122;-1.638;2022-07-23T00:09:09;17.00;99.90
19610;DHT22;9952;47.122;-1.638;2022-07-23T00:13:50;17.00;99.90
19610;DHT22;9952;47.122;-1.638;2022-07-23T00:18:31;16.90;99.90
19610;DHT22;9952;47.122;-1.638;2022-07-23T00:23:12;16.90;99.90
19610;DHT22;9952;47.122;-1.638;2022-07-23T00:27:52;16.80;99.90
19610;DHT22;9952;47.122;-1.638;2022-07-23T00:32:48;16.80;99.90
19610;DHT22;9952;47.122;-1.638;2022-07-23T00:37:29;16.70;99.90
19610;DHT22;9952;47.122;-1.638;2022-07-23T00:42:10;16.60;99.90
19610;DHT22;9952;47.122;-1.638;2022-07-23T00:46:57;16.50;99.90
19610;DHT22;9952;47.122;-1.638;2022-07-23T00:51:38;16.40;99.90
19610;DHT22;9952;47.122;-1.638;2022-07-23T00:56:19;16.30;99.90
19610;DHT22;9952;47.122;-1.638;2022-07-23T01:01:00;16.20;99.90
19610;DHT22;9952;47.122;-1.638;2022-07-23T01:05:40;16.10;99.90
19610;DHT22;9952;47.122;-1.638;2022-07-23T01:10:21;16.00;99.90
19610;DHT22;9952;47.122;-1.638;2022-07-23T01:15:11;16.00;99.90
19610;DHT22;9952;47.122;-1.638;2022-07-23T01:19:52;16.00;99.90
19610;DHT22;9952;47.122;-1.638;2022-07-23T01:24:33;15.90;99.90
19610;DHT22;9952;47.122;-1.638;2022-07-23T01:29:15;15.90;99.90
19610;DHT22;9952;47.122;-1.638;2022-07-23T01:33:56;15.90;99.90
19610;DHT22;9952;47.122;-1.638;2022-07-23T01:38:37;15.70;99.90
19610;DHT22;9952;47.122;-1.638;2022-07-23T01:43:17;15.60;99.90
19610;DHT22;9952;47.122;-1.638;2022-07-23T01:47:58;15.60;99.90
19610;DHT22;9952;47.122;-1.638;2022-07-23T01:52:39;15.50;99.90
19610;DHT22;9952;47.122;-1.638;2022-07-23T01:57:20;15.50;99.90
19610;DHT22;9952;47.122;-1.638;2022-07-23T02:02:01;15.40;99.90
19610;DHT22;9952;47.122;-1.638;2022-07-23T02:06:43;15.30;99.90
19610;DHT22;9952;47.122;-1.638;2022-07-23T02:11:24;15.30;99.90
19610;DHT22;9952;47.122;-1.638;2022-07-23T02:16:06;15.20;99.90
19610;DHT22;9952;47.122;-1.638;2022-07-23T02:20:47;15.10;99.90
19610;DHT22;9952;47.122;-1.638;2022-07-23T02:25:28;15.10;99.90
19610;DHT22;9952;47.122;-1.638;2022-07-23T02:30:09;15.10;99.90
19610;DHT22;9952;47.122;-1.638;2022-07-23T02:34:50;15.00;99.90
19610;DHT22;9952;47.122;-1.638;2022-07-23T02:39:31;15.00;99.90
19610;DHT22;9952;47.122;-1.638;2022-07-23T02:44:12;15.00;99.90
19610;DHT22;9952;47.122;-1.638;2022-07-23T02:48:52;15.00;99.90
19610;DHT22;9952;47.122;-1.638;2022-07-23T02:53:33;15.00;99.90
19610;DHT22;9952;47.122;-1.638;2022-07-23T02:58:14;14.90;99.90
19610;DHT22;9952;47.122;-1.638;2022-07-23T03:02:55;14.90;99.90
19610;DHT22;9952;47.122;-1.638;2022-07-23T03:07:35;14.90;99.90
19610;DHT22;9952;47.122;-1.638;2022-07-23T03:12:16;14.90;99.90
19610;DHT22;9952;47.122;-1.638;2022-07-23T03:16:57;14.90;99.90
19610;DHT22;9952;47.122;-1.638;2022-07-23T03:21:40;14.90;99.90
19610;DHT22;9952;47.122;-1.638;2022-07-23T03:26:21;14.80;99.90
19610;DHT22;9952;47.122;-1.638;2022-07-23T03:31:05;14.80;99.90
19610;DHT22;9952;47.122;-1.638;2022-07-23T03:35:47;14.80;99.90
19610;DHT22;9952;47.122;-1.638;2022-07-23T03:40:28;14.70;99.90
19610;DHT22;9952;47.122;-1.638;2022-07-23T03:45:09;14.70;99.90
19610;DHT22;9952;47.122;-1.638;2022-07-23T03:49:50;14.70;99.90
19610;DHT22;9952;47.122;-1.638;2022-07-23T03:54:31;14.80;99.90
19610;DHT22;9952;47.122;-1.638;2022-07-23T03:59:12;14.70;99.90
19610;DHT22;9952;47.122;-1.638;2022-07-23T04:03:53;14.70;99.90
19610;DHT22;9952;47.122;-1.638;2022-07-23T04:08:33;14.70;99.90
19610;DHT22;9952;47.122;-1.638;2022-07-23T04:13:14;14.70;99.90
19610;DHT22;9952;47.122;-1.638;2022-07-23T04:17:55;14.70;99.90
19610;DHT22;9952;47.122;-1.638;2022-07-23T04:22:36;14.70;99.90
19610;DHT22;9952;47.122;-1.638;2022-07-23T04:27:17;14.70;99.90
19610;DHT22;9952;47.122;-1.638;2022-07-23T04:31:57;14.70;99.90
19610;DHT22;9952;47.122;-1.638;2022-07-23T04:36:38;14.70;99.90
19610;DHT22;9952;47.122;-1.638;2022-07-23T04:41:19;14.70;99.90
19610;DHT22;9952;47.122;-1.638;2022-07-23T04:46:00;14.70;99.90
19610;DHT22;9952;47.122;-1.638;2022-07-23T04:50:41;14.70;99.90
19610;DHT22;9952;47.122;-1.638;2022-07-23T04:55:23;14.60;99.90
19610;DHT22;9952;47.122;-1.638;2022-07-23T05:00:04;14.50;99.90
19610;DHT22;9952;47.122;-1.638;2022-07-23T05:04:45;14.50;99.90
19610;DHT22;9952;47.122;-1.638;2022-07-23T05:09:26;14.50;99.90
19610;DHT22;9952;47.122;-1.638;2022-07-23T05:14:07;14.50;99.90
19610;DHT22;9952;47.122;-1.638;2022-07-23T05:18:47;14.40;99.90
19610;DHT22;9952;47.122;-1.638;2022-07-23T05:23:28;14.40;99.90
19610;DHT22;9952;47.122;-1.638;2022-07-23T05:28:09;14.40;99.90
19610;DHT22;9952;47.122;-1.638;2022-07-23T05:32:50;14.40;99.90
19610;DHT22;9952;47.122;-1.638;2022-07-23T05:37:30;14.40;99.90
19610;DHT22;9952;47.122;-1.638;2022-07-23T05:42:11;14.40;99.90
19610;DHT22;9952;47.122;-1.638;2022-07-23T05:46:52;14.40;99.90
19610;DHT22;9952;47.122;-1.638;2022-07-23T05:51:33;14.50;99.90
19610;DHT22;9952;47.122;-1.638;2022-07-23T05:56:14;14.50;99.90
19610;DHT22;9952;47.122;-1.638;2022-07-23T06:00:56;14.50;99.90
19610;DHT22;9952;47.122;-1.638;2022-07-23T06:05:37;14.60;99.90
19610;DHT22;9952;47.122;-1.638;2022-07-23T06:10:18;14.70;99.90
19610;DHT22;9952;47.122;-1.638;2022-07-23T06:14:59;14.90;99.90
19610;DHT22;9952;47.122;-1.638;2022-07-23T06:19:40;15.00;99.90
19610;DHT22;9952;47.122;-1.638;2022-07-23T06:24:21;15.30;99.90
19610;DHT22;9952;47.122;-1.638;2022-07-23T06:29:01;15.50;99.90
19610;DHT22;9952;47.122;-1.638;2022-07-23T06:33:42;15.80;99.90
19610;DHT22;9952;47.122;-1.638;2022-07-23T06:38:23;15.90;99.90
19610;DHT22;9952;47.122;-1.638;2022-07-23T06:43:04;16.10;99.90
19610;DHT22;9952;47.122;-1.638;2022-07-23T06:47:44;16.30;99.90
19610;DHT22;9952;47.122;-1.638;2022-07-23T06:52:25;16.50;99.90
19610;DHT22;9952;47.122;-1.638;2022-07-23T06:57:06;16.80;99.90
19610;DHT22;9952;47.122;-1.638;2022-07-23T07:01:47;16.90;99.90
19610;DHT22;9952;47.122;-1.638;2022-07-23T07:06:28;17.10;99.90
19610;DHT22;9952;47.122;-1.638;2022-07-23T07:11:09;17.50;99.90
19610;DHT22;9952;47.122;-1.638;2022-07-23T07:15:49;17.70;99.90
19610;DHT22;9952;47.122;-1.638;2022-07-23T07:20:30;18.00;99.90
19610;DHT22;9952;47.122;-1.638;2022-07-23T07:25:11;18.10;99.90
19610;DHT22;9952;47.122;-1.638;2022-07-23T07:29:52;18.20;99.90
19610;DHT22;9952;47.122;-1.638;2022-07-23T07:34:32;18.40;99.90
19610;DHT22;9952;47.122;-1.638;2022-07-23T07:39:13;18.70;99.90
19610;DHT22;9952;47.122;-1.638;2022-07-23T07:43:54;18.90;99.90
19610;DHT22;9952;47.122;-1.638;2022-07-23T07:48:38;19.10;99.90
19610;DHT22;9952;47.122;-1.638;2022-07-23T07:53:19;19.30;99.90
19610;DHT22;9952;47.122;-1.638;2022-07-23T07:58:00;19.50;99.90
19610;DHT22;9952;47.122;-1.638;2022-07-23T08:02:41;19.80;99.90
19610;DHT22;9952;47.122;-1.638;2022-07-23T08:07:22;20.10;99.90
19610;DHT22;9952;47.122;-1.638;2022-07-23T08:12:03;20.70;99.90
19610;DHT22;9952;47.122;-1.638;2022-07-23T08:16:45;21.10;99.90
19610;DHT22;9952;47.122;-1.638;2022-07-23T08:21:26;21.30;99.90
19610;DHT22;9952;47.122;-1.638;2022-07-23T08:26:07;21.50;99.90
19610;DHT22;9952;47.122;-1.638;2022-07-23T08:30:48;21.70;99.90
19610;DHT22;9952;47.122;-1.638;2022-07-23T08:35:34;22.00;99.90
19610;DHT22;9952;47.122;-1.638;2022-07-23T08:40:15;22.10;99.90
19610;DHT22;9952;47.122;-1.638;2022-07-23T08:44:56;22.30;99.90
19610;DHT22;9952;47.122;-1.638;2022-07-23T08:49:38;22.50;99.90
19610;DHT22;9952;47.122;-1.638;2022-07-23T08:54:18;22.80;99.90
19610;DHT22;9952;47.122;-1.638;2022-07-23T08:58:59;23.30;99.90
19610;DHT22;9952;47.122;-1.638;2022-07-23T09:03:40;23.60;99.90
19610;DHT22;9952;47.122;-1.638;2022-07-23T09:08:26;24.10;99.90
19610;DHT22;9952;47.122;-1.638;2022-07-23T09:18:41;25.20;99.90
19610;DHT22;9952;47.122;-1.638;2022-07-23T09:23:37;26.40;99.90
19610;DHT22;9952;47.122;-1.638;2022-07-23T09:28:19;27.10;99.90
19610;DHT22;9952;47.122;-1.638;2022-07-23T09:33:13;27.40;99.90
19610;DHT22;9952;47.122;-1.638;2022-07-23T09:38:02;26.90;99.90
19610;DHT22;9952;47.122;-1.638;2022-07-23T09:42:55;26.60;99.90
19610;DHT22;9952;47.122;-1.638;2022-07-23T09:47:36;26.30;99.90
19610;DHT22;9952;47.122;-1.638;2022-07-23T09:52:28;26.10;99.90
19610;DHT22;9952;47.122;-1.638;2022-07-23T09:57:11;26.10;99.90
19610;DHT22;9952;47.122;-1.638;2022-07-23T10:01:57;25.90;99.90
19610;DHT22;9952;47.122;-1.638;2022-07-23T10:06:41;25.80;99.90
19610;DHT22;9952;47.122;-1.638;2022-07-23T10:11:23;25.80;99.90
19610;DHT22;9952;47.122;-1.638;2022-07-23T10:16:04;25.80;99.90
19610;DHT22;9952;47.122;-1.638;2022-07-23T10:20:47;25.80;99.90
19610;DHT22;9952;47.122;-1.638;2022-07-23T10:30:50;26.00;99.90
19610;DHT22;9952;47.122;-1.638;2022-07-23T10:40:23;25.80;99.90
19610;DHT22;9952;47.122;-1.638;2022-07-23T10:45:24;25.90;99.90
19610;DHT22;9952;47.122;-1.638;2022-07-23T10:50:27;26.00;99.90
19610;DHT22;9952;47.122;-1.638;2022-07-23T11:04:52;26.20;99.90
19610;DHT22;9952;47.122;-1.638;2022-07-23T11:09:42;26.20;99.90
19610;DHT22;9952;47.122;-1.638;2022-07-23T11:24:58;26.90;99.90
19610;DHT22;9952;47.122;-1.638;2022-07-23T11:29:39;26.90;99.90
19610;DHT22;9952;47.122;-1.638;2022-07-23T11:34:33;27.10;99.90
19610;DHT22;9952;47.122;-1.638;2022-07-23T11:39:14;27.40;99.90
19610;DHT22;9952;47.122;-1.638;2022-07-23T11:43:55;27.50;99.90
19610;DHT22;9952;47.122;-1.638;2022-07-23T11:48:36;27.50;99.90
19610;DHT22;9952;47.122;-1.638;2022-07-23T11:53:31;27.60;99.90
19610;DHT22;9952;47.122;-1.638;2022-07-23T11:58:12;27.70;99.90
19610;DHT22;9952;47.122;-1.638;2022-07-23T12:02:56;27.90;99.90
19610;DHT22;9952;47.122;-1.638;2022-07-23T12:07:41;27.80;99.90
19610;DHT22;9952;47.122;-1.638;2022-07-23T12:12:24;28.10;99.90
19610;DHT22;9952;47.122;-1.638;2022-07-23T12:17:09;28.20;99.20
19610;DHT22;9952;47.122;-1.638;2022-07-23T12:21:50;28.10;99.10
19610;DHT22;9952;47.122;-1.638;2022-07-23T12:26:31;28.00;97.20
19610;DHT22;9952;47.122;-1.638;2022-07-23T12:31:12;28.00;97.00
19610;DHT22;9952;47.122;-1.638;2022-07-23T12:35:56;28.10;97.40
19610;DHT22;9952;47.122;-1.638;2022-07-23T12:40:43;28.30;96.90
19610;DHT22;9952;47.122;-1.638;2022-07-23T12:45:26;28.30;95.70
19610;DHT22;9952;47.122;-1.638;2022-07-23T12:50:07;28.40;96.40
19610;DHT22;9952;47.122;-1.638;2022-07-23T12:54:47;28.70;95.90
19610;DHT22;9952;47.122;-1.638;2022-07-23T12:59:31;28.80;95.80
19610;DHT22;9952;47.122;-1.638;2022-07-23T13:04:18;29.00;93.60
19610;DHT22;9952;47.122;-1.638;2022-07-23T13:09:00;29.10;92.90
19610;DHT22;9952;47.122;-1.638;2022-07-23T13:13:41;29.00;93.70
19610;DHT22;9952;47.122;-1.638;2022-07-23T13:18:22;28.80;93.20
19610;DHT22;9952;47.122;-1.638;2022-07-23T13:23:03;29.00;93.50
19610;DHT22;9952;47.122;-1.638;2022-07-23T13:27:44;29.10;92.20
19610;DHT22;9952;47.122;-1.638;2022-07-23T13:32:25;28.90;91.70
19610;DHT22;9952;47.122;-1.638;2022-07-23T13:37:06;28.60;92.20
19610;DHT22;9952;47.122;-1.638;2022-07-23T13:41:46;28.60;91.70
19610;DHT22;9952;47.122;-1.638;2022-07-23T13:46:27;28.40;90.90
19610;DHT22;9952;47.122;-1.638;2022-07-23T13:51:08;28.40;92.30
19610;DHT22;9952;47.122;-1.638;2022-07-23T13:55:52;28.70;92.80
19610;DHT22;9952;47.122;-1.638;2022-07-23T14:00:35;28.90;93.00
19610;DHT22;9952;47.122;-1.638;2022-07-23T14:05:16;28.90;93.30
19610;DHT22;9952;47.122;-1.638;2022-07-23T14:09:57;29.00;93.00
19610;DHT22;9952;47.122;-1.638;2022-07-23T14:14:38;28.90;92.70
19610;DHT22;9952;47.122;-1.638;2022-07-23T14:19:19;29.00;93.30
19610;DHT22;9952;47.122;-1.638;2022-07-23T14:23:59;29.00;93.50
19610;DHT22;9952;47.122;-1.638;2022-07-23T14:28:40;29.00;93.50
19610;DHT22;9952;47.122;-1.638;2022-07-23T14:33:21;28.80;94.20
19610;DHT22;9952;47.122;-1.638;2022-07-23T14:38:02;28.90;94.70
19610;DHT22;9952;47.122;-1.638;2022-07-23T14:42:42;28.80;94.20
19610;DHT22;9952;47.122;-1.638;2022-07-23T14:47:23;28.80;95.10
19610;DHT22;9952;47.122;-1.638;2022-07-23T14:52:06;28.70;94.80
19610;DHT22;9952;47.122;-1.638;2022-07-23T14:56:47;28.50;95.90
19610;DHT22;9952;47.122;-1.638;2022-07-23T15:01:28;28.50;95.80
19610;DHT22;9952;47.122;-1.638;2022-07-23T15:06:09;28.50;96.30
19610;DHT22;9952;47.122;-1.638;2022-07-23T15:10:50;28.60;97.30
19610;DHT22;9952;47.122;-1.638;2022-07-23T15:15:31;28.90;96.20
19610;DHT22;9952;47.122;-1.638;2022-07-23T15:20:12;28.90;94.60
19610;DHT22;9952;47.122;-1.638;2022-07-23T15:24:53;28.90;94.60
19610;DHT22;9952;47.122;-1.638;2022-07-23T15:29:34;28.60;95.20
19610;DHT22;9952;47.122;-1.638;2022-07-23T15:34:15;28.40;94.70
19610;DHT22;9952;47.122;-1.638;2022-07-23T15:38:56;28.30;95.00
19610;DHT22;9952;47.122;-1.638;2022-07-23T15:43:36;28.30;94.80
19610;DHT22;9952;47.122;-1.638;2022-07-23T15:48:18;28.30;94.80
19610;DHT22;9952;47.122;-1.638;2022-07-23T15:52:59;28.10;95.30
19610;DHT22;9952;47.122;-1.638;2022-07-23T15:57:40;27.90;95.80
19610;DHT22;9952;47.122;-1.638;2022-07-23T16:02:21;27.80;95.70
19610;DHT22;9952;47.122;-1.638;2022-07-23T16:07:02;27.70;95.30
19610;DHT22;9952;47.122;-1.638;2022-07-23T16:11:42;27.80;96.00
19610;DHT22;9952;47.122;-1.638;2022-07-23T16:16:23;27.60;95.30
19610;DHT22;9952;47.122;-1.638;2022-07-23T16:21:06;27.50;95.90
19610;DHT22;9952;47.122;-1.638;2022-07-23T16:25:48;27.30;94.30
19610;DHT22;9952;47.122;-1.638;2022-07-23T16:30:29;27.20;93.80
19610;DHT22;9952;47.122;-1.638;2022-07-23T16:35:10;27.20;94.00
19610;DHT22;9952;47.122;-1.638;2022-07-23T16:39:51;27.10;94.30
19610;DHT22;9952;47.122;-1.638;2022-07-23T16:44:32;27.00;95.20
19610;DHT22;9952;47.122;-1.638;2022-07-23T16:49:13;26.90;95.20
19610;DHT22;9952;47.122;-1.638;2022-07-23T16:53:53;26.90;96.30
19610;DHT22;9952;47.122;-1.638;2022-07-23T16:58:36;26.80;97.00
19610;DHT22;9952;47.122;-1.638;2022-07-23T17:03:17;26.70;97.90
19610;DHT22;9952;47.122;-1.638;2022-07-23T17:07:57;26.60;98.40
19610;DHT22;9952;47.122;-1.638;2022-07-23T17:12:39;26.40;98.60
19610;DHT22;9952;47.122;-1.638;2022-07-23T17:17:20;26.40;98.90
19610;DHT22;9952;47.122;-1.638;2022-07-23T17:22:01;26.20;98.50
19610;DHT22;9952;47.122;-1.638;2022-07-23T17:26:42;26.10;99.50
19610;DHT22;9952;47.122;-1.638;2022-07-23T17:31:23;26.00;99.90
19610;DHT22;9952;47.122;-1.638;2022-07-23T17:36:05;25.80;99.90
19610;DHT22;9952;47.122;-1.638;2022-07-23T17:40:47;25.50;99.90
19610;DHT22;9952;47.122;-1.638;2022-07-23T17:45:28;25.30;99.90
19610;DHT22;9952;47.122;-1.638;2022-07-23T17:50:10;25.10;99.90
19610;DHT22;9952;47.122;-1.638;2022-07-23T17:54:51;25.10;99.90
19610;DHT22;9952;47.122;-1.638;2022-07-23T17:59:31;25.00;99.90
19610;DHT22;9952;47.122;-1.638;2022-07-23T18:04:12;25.00;99.90
19610;DHT22;9952;47.122;-1.638;2022-07-23T18:08:53;24.90;99.80
19610;DHT22;9952;47.122;-1.638;2022-07-23T18:13:34;24.80;99.90
19610;DHT22;9952;47.122;-1.638;2022-07-23T18:18:15;24.70;99.90
19610;DHT22;9952;47.122;-1.638;2022-07-23T18:22:56;24.70;99.90
19610;DHT22;9952;47.122;-1.638;2022-07-23T18:27:37;24.50;99.90
19610;DHT22;9952;47.122;-1.638;2022-07-23T18:32:18;24.40;99.60
19610;DHT22;9952;47.122;-1.638;2022-07-23T18:36:59;24.20;99.90
19610;DHT22;9952;47.122;-1.638;2022-07-23T18:41:41;24.10;99.90
19610;DHT22;9952;47.122;-1.638;2022-07-23T18:46:22;24.00;99.90
19610;DHT22;9952;47.122;-1.638;2022-07-23T18:51:02;23.90;99.90
19610;DHT22;9952;47.122;-1.638;2022-07-23T18:55:43;23.70;99.90
19610;DHT22;9952;47.122;-1.638;2022-07-23T19:00:24;23.60;99.90
19610;DHT22;9952;47.122;-1.638;2022-07-23T19:05:05;23.50;99.90
19610;DHT22;9952;47.122;-1.638;2022-07-23T19:09:47;23.40;99.90
19610;DHT22;9952;47.122;-1.638;2022-07-23T19:14:28;23.20;99.90
19610;DHT22;9952;47.122;-1.638;2022-07-23T19:19:09;23.10;99.90
19610;DHT22;9952;47.122;-1.638;2022-07-23T19:23:49;23.00;99.90
19610;DHT22;9952;47.122;-1.638;2022-07-23T19:28:30;22.80;99.90
19610;DHT22;9952;47.122;-1.638;2022-07-23T19:33:11;22.70;99.90
19610;DHT22;9952;47.122;-1.638;2022-07-23T19:37:52;22.50;99.90
19610;DHT22;9952;47.122;-1.638;2022-07-23T19:42:33;22.30;99.90
19610;DHT22;9952;47.122;-1.638;2022-07-23T19:47:15;22.20;99.90
19610;DHT22;9952;47.122;-1.638;2022-07-23T19:51:56;22.10;99.90
19610;DHT22;9952;47.122;-1.638;2022-07-23T19:56:36;21.90;99.90
19610;DHT22;9952;47.122;-1.638;2022-07-23T20:01:17;21.80;99.90
19610;DHT22;9952;47.122;-1.638;2022-07-23T20:05:58;21.70;99.90
19610;DHT22;9952;47.122;-1.638;2022-07-23T20:10:39;21.50;99.90
19610;DHT22;9952;47.122;-1.638;2022-07-23T20:15:21;21.40;99.90
19610;DHT22;9952;47.122;-1.638;2022-07-23T20:20:04;21.30;99.90
19610;DHT22;9952;47.122;-1.638;2022-07-23T20:24:45;21.20;99.90
19610;DHT22;9952;47.122;-1.638;2022-07-23T20:29:26;21.10;99.90
19610;DHT22;9952;47.122;-1.638;2022-07-23T20:34:07;21.00;99.90
19610;DHT22;9952;47.122;-1.638;2022-07-23T20:38:48;20.90;99.90
19610;DHT22;9952;47.122;-1.638;2022-07-23T20:43:29;20.80;99.90
19610;DHT22;9952;47.122;-1.638;2022-07-23T20:48:10;20.60;99.90
19610;DHT22;9952;47.122;-1.638;2022-07-23T20:52:52;20.50;99.90
19610;DHT22;9952;47.122;-1.638;2022-07-23T20:57:33;20.40;99.90
19610;DHT22;9952;47.122;-1.638;2022-07-23T21:02:13;20.30;99.90
19610;DHT22;9952;47.122;-1.638;2022-07-23T21:06:54;20.20;99.90
19610;DHT22;9952;47.122;-1.638;2022-07-23T21:11:35;20.10;99.90
19610;DHT22;9952;47.122;-1.638;2022-07-23T21:16:17;20.10;99.90
19610;DHT22;9952;47.122;-1.638;2022-07-23T21:20:58;20.00;99.90
19610;DHT22;9952;47.122;-1.638;2022-07-23T21:25:48;20.00;99.90
19610;DHT22;9952;47.122;-1.638;2022-07-23T21:30:31;19.90;99.90
19610;DHT22;9952;47.122;-1.638;2022-07-23T21:35:11;19.80;99.90
19610;DHT22;9952;47.122;-1.638;2022-07-23T21:39:52;19.70;99.90
19610;DHT22;9952;47.122;-1.638;2022-07-23T21:44:33;19.70;99.90
19610;DHT22;9952;47.122;-1.638;2022-07-23T21:49:14;19.60;99.90
19610;DHT22;9952;47.122;-1.638;2022-07-23T21:53:56;19.50;99.90
19610;DHT22;9952;47.122;-1.638;2022-07-23T21:58:36;19.40;99.90
19610;DHT22;9952;47.122;-1.638;2022-07-23T22:03:17;19.40;99.90
19610;DHT22;9952;47.122;-1.638;2022-07-23T22:07:58;19.30;99.90
19610;DHT22;9952;47.122;-1.638;2022-07-23T22:12:39;19.20;99.90
19610;DHT22;9952;47.122;-1.638;2022-07-23T22:17:20;19.20;99.90
19610;DHT22;9952;47.122;-1.638;2022-07-23T22:22:01;19.10;99.90
19610;DHT22;9952;47.122;-1.638;2022-07-23T22:26:43;19.00;99.90
19610;DHT22;9952;47.122;-1.638;2022-07-23T22:31:24;18.90;99.90
19610;DHT22;9952;47.122;-1.638;2022-07-23T22:36:05;18.90;99.90
19610;DHT22;9952;47.122;-1.638;2022-07-23T22:40:45;18.80;99.90
19610;DHT22;9952;47.122;-1.638;2022-07-23T22:45:27;18.80;99.90
19610;DHT22;9952;47.122;-1.638;2022-07-23T22:50:08;18.60;99.90
19610;DHT22;9952;47.122;-1.638;2022-07-23T22:54:49;18.40;99.90
19610;DHT22;9952;47.122;-1.638;2022-07-23T22:59:30;18.30;99.90
19610;DHT22;9952;47.122;-1.638;2022-07-23T23:04:11;18.30;99.90
19610;DHT22;9952;47.122;-1.638;2022-07-23T23:08:52;18.30;99.90
19610;DHT22;9952;47.122;-1.638;2022-07-23T23:13:33;18.20;99.90
19610;DHT22;9952;47.122;-1.638;2022-07-23T23:18:13;18.20;99.90
19610;DHT22;9952;47.122;-1.638;2022-07-23T23:22:54;18.10;99.90
19610;DHT22;9952;47.122;-1.638;2022-07-23T23:27:35;17.90;99.90
19610;DHT22;9952;47.122;-1.638;2022-07-23T23:32:16;17.90;99.90
19610;DHT22;9952;47.122;-1.638;2022-07-23T23:36:56;17.80;99.90
19610;DHT22;9952;47.122;-1.638;2022-07-23T23:41:37;17.80;99.90
19610;DHT22;9952;47.122;-1.638;2022-07-23T23:46:18;17.70;99.90
19610;DHT22;9952;47.122;-1.638;2022-07-23T23:50:59;17.60;99.90
19610;DHT22;9952;47.122;-1.638;2022-07-23T23:55:39;17.40;99.90
